createdAt,value
2018-07-27T00:01:34.114Z,21.50
2018-07-27T00:04:02.886Z,23.00
2018-07-27T00:06:31.591Z,21.60
2018-07-27T00:09:00.312Z,21.60
2018-07-27T00:11:28.896Z,21.60
2018-07-27T00:13:57.729Z,21.60
2018-07-27T00:16:26.373Z,21.70
2018-07-27T00:18:55.019Z,23.10
2018-07-27T00:21:23.801Z,21.60
2018-07-27T00:23:52.528Z,21.70
2018-07-27T00:26:21.228Z,21.70
2018-07-27T00:28:50.675Z,21.60
2018-07-27T00:31:19.354Z,21.60
2018-07-27T00:33:50.035Z,21.50
2018-07-27T00:36:18.913Z,21.50
2018-07-27T00:38:49.729Z,21.40
2018-07-27T00:41:18.366Z,21.40
2018-07-27T00:43:47.512Z,21.40
2018-07-27T00:46:16.548Z,21.40
2018-07-27T00:48:45.198Z,21.50
2018-07-27T00:51:14.031Z,21.50
2018-07-27T00:53:42.824Z,21.60
2018-07-27T00:56:11.584Z,21.70
2018-07-27T00:58:40.241Z,21.70
2018-07-27T01:01:08.880Z,21.70
2018-07-27T01:03:37.565Z,21.70
2018-07-27T01:06:06.388Z,21.60
2018-07-27T01:08:35.030Z,21.50
2018-07-27T01:11:03.896Z,21.40
2018-07-27T01:13:32.589Z,21.40
2018-07-27T01:16:01.359Z,21.40
2018-07-27T01:18:30.167Z,21.40
2018-07-27T01:20:59.465Z,21.30
2018-07-27T01:23:28.239Z,21.30
2018-07-27T01:25:57.190Z,21.20
2018-07-27T01:28:25.738Z,21.10
2018-07-27T01:30:54.434Z,21.00
2018-07-27T01:33:23.235Z,21.00
2018-07-27T01:35:53.130Z,21.00
2018-07-27T01:38:23.659Z,21.00
2018-07-27T01:40:52.388Z,20.90
2018-07-27T01:43:22.720Z,20.80
2018-07-27T01:45:51.449Z,20.70
2018-07-27T01:48:22.146Z,20.80
2018-07-27T01:50:50.844Z,20.80
2018-07-27T01:53:19.542Z,20.80
2018-07-27T01:55:48.260Z,20.80
2018-07-27T01:58:16.902Z,20.80
2018-07-27T02:00:45.642Z,20.80
2018-07-27T02:04:43.807Z,20.70
2018-07-27T02:07:12.611Z,20.70
2018-07-27T02:09:41.393Z,20.50
2018-07-27T02:12:10.020Z,20.40
2018-07-27T02:14:38.727Z,20.50
2018-07-27T02:17:08.591Z,21.40
2018-07-27T02:19:37.357Z,20.50
2018-07-27T02:22:06.665Z,20.50
2018-07-27T02:24:35.339Z,20.50
2018-07-27T02:27:03.978Z,20.40
2018-07-27T02:29:32.631Z,20.40
2018-07-27T02:32:01.323Z,20.40
2018-07-27T02:34:29.999Z,20.40
2018-07-27T02:36:58.683Z,20.00
2018-07-27T02:39:27.378Z,20.40
2018-07-27T02:41:56.138Z,20.40
2018-07-27T02:44:24.935Z,20.40
2018-07-27T02:46:53.690Z,20.40
2018-07-27T02:49:22.333Z,20.40
2018-07-27T02:51:51.011Z,20.30
2018-07-27T02:54:19.715Z,20.40
2018-07-27T02:56:48.257Z,20.40
2018-07-27T02:59:16.995Z,20.40
2018-07-27T03:01:45.611Z,20.40
2018-07-27T03:04:14.689Z,20.40
2018-07-27T03:06:43.425Z,20.50
2018-07-27T03:09:12.629Z,20.40
2018-07-27T03:11:41.693Z,20.40
2018-07-27T03:14:10.447Z,20.30
2018-07-27T03:16:39.186Z,20.20
2018-07-27T03:19:07.939Z,20.20
2018-07-27T03:21:37.558Z,20.20
2018-07-27T03:24:06.189Z,20.30
2018-07-27T03:26:34.817Z,20.30
2018-07-27T03:29:03.570Z,20.30
2018-07-27T03:31:32.260Z,20.30
2018-07-27T03:34:01.054Z,20.30
2018-07-27T03:36:29.675Z,20.30
2018-07-27T03:38:58.429Z,20.40
2018-07-27T03:41:27.126Z,20.40
2018-07-27T03:43:55.669Z,20.50
2018-07-27T03:46:24.488Z,20.50
2018-07-27T03:48:53.286Z,20.40
2018-07-27T03:51:21.971Z,20.40
2018-07-27T03:53:50.669Z,20.30
2018-07-27T03:56:20.594Z,20.40
2018-07-27T03:58:49.327Z,18.90
2018-07-27T04:01:18.000Z,20.50
2018-07-27T04:03:46.670Z,20.50
2018-07-27T04:06:15.334Z,20.50
2018-07-27T04:08:43.929Z,20.60
2018-07-27T04:11:12.696Z,20.60
2018-07-27T04:13:44.291Z,20.60
2018-07-27T04:16:14.172Z,20.60
2018-07-27T04:18:42.930Z,20.70
2018-07-27T04:21:11.674Z,19.80
2018-07-27T04:23:40.363Z,20.70
2018-07-27T04:26:09.063Z,20.80
2018-07-27T04:28:38.564Z,20.70
2018-07-27T04:31:07.241Z,20.80
2018-07-27T04:33:36.008Z,20.80
2018-07-27T04:36:06.160Z,20.80
2018-07-27T04:38:34.839Z,20.70
2018-07-27T04:41:03.499Z,20.70
2018-07-27T04:43:32.203Z,20.60
2018-07-27T04:46:01.079Z,20.40
2018-07-27T04:48:29.765Z,20.50
2018-07-27T04:50:58.686Z,20.60
2018-07-27T04:53:27.405Z,20.70
2018-07-27T04:55:56.162Z,20.80
2018-07-27T04:58:25.048Z,21.40
2018-07-27T05:00:53.610Z,20.80
2018-07-27T05:03:23.597Z,20.80
2018-07-27T05:05:52.374Z,22.40
2018-07-27T05:08:23.922Z,20.90
2018-07-27T05:10:52.718Z,20.80
2018-07-27T05:13:23.889Z,20.80
2018-07-27T05:15:52.566Z,20.70
2018-07-27T05:18:23.324Z,20.80
2018-07-27T05:20:51.952Z,20.80
2018-07-27T05:23:22.152Z,20.90
2018-07-27T05:25:50.977Z,20.40
2018-07-27T05:28:19.654Z,20.90
2018-07-27T05:30:48.229Z,21.00
2018-07-27T05:33:16.930Z,21.00
2018-07-27T05:35:45.587Z,21.00
2018-07-27T05:38:14.288Z,19.60
2018-07-27T05:40:42.961Z,21.00
2018-07-27T05:43:11.784Z,21.00
2018-07-27T05:45:40.498Z,21.10
2018-07-27T05:48:09.166Z,21.00
2018-07-27T05:50:37.969Z,21.10
2018-07-27T05:53:06.693Z,21.20
2018-07-27T05:55:35.558Z,21.30
2018-07-27T05:58:05.359Z,21.40
2018-07-27T06:00:34.129Z,21.50
2018-07-27T06:03:02.849Z,21.50
2018-07-27T06:05:31.761Z,20.00
2018-07-27T06:08:00.517Z,21.50
2018-07-27T06:10:30.475Z,21.60
2018-07-27T06:12:59.217Z,21.60
2018-07-27T06:15:36.406Z,21.70
2018-07-27T06:18:07.405Z,21.70
2018-07-27T06:20:36.381Z,21.70
2018-07-27T06:23:05.228Z,21.70
2018-07-27T06:25:34.137Z,21.80
2018-07-27T06:28:02.795Z,21.90
2018-07-27T06:30:32.217Z,21.90
2018-07-27T06:33:04.055Z,21.90
2018-07-27T06:35:37.876Z,21.90
2018-07-27T06:38:06.902Z,21.90
2018-07-27T06:40:35.785Z,22.00
2018-07-27T06:43:04.742Z,22.10
2018-07-27T06:45:33.484Z,22.10
2018-07-27T06:48:02.253Z,20.80
2018-07-27T06:50:31.154Z,22.30
2018-07-27T06:52:59.758Z,22.40
2018-07-27T06:55:28.465Z,22.40
2018-07-27T06:57:58.702Z,22.60
2018-07-27T07:00:27.415Z,22.70
2018-07-27T07:02:58.220Z,22.70
2018-07-27T07:05:31.070Z,22.90
2018-07-27T07:08:01.687Z,22.90
2018-07-27T07:10:30.522Z,22.90
2018-07-27T07:12:59.133Z,23.00
2018-07-27T07:15:29.799Z,23.10
2018-07-27T07:17:58.521Z,23.10
2018-07-27T07:20:28.989Z,23.20
2018-07-27T07:22:57.738Z,23.20
2018-07-27T07:25:27.643Z,23.20
2018-07-27T07:27:56.249Z,23.30
2018-07-27T07:30:26.395Z,23.30
2018-07-27T07:32:55.263Z,23.30
2018-07-27T07:35:27.218Z,23.30
2018-07-27T07:37:59.552Z,23.40
2018-07-27T07:40:29.594Z,23.60
2018-07-27T07:42:58.275Z,23.70
2018-07-27T07:45:27.714Z,22.20
2018-07-27T07:47:56.476Z,24.00
2018-07-27T07:50:28.710Z,24.20
2018-07-27T07:52:57.378Z,24.30
2018-07-27T07:55:27.957Z,24.50
2018-07-27T07:57:56.629Z,24.60
2018-07-27T08:00:26.811Z,24.80
2018-07-27T08:04:25.248Z,24.90
2018-07-27T08:06:53.879Z,25.00
2018-07-27T08:09:22.800Z,25.10
2018-07-27T08:11:51.485Z,25.10
2018-07-27T08:14:20.301Z,25.40
2018-07-27T08:16:49.001Z,25.20
2018-07-27T08:19:17.767Z,24.90
2018-07-27T08:21:46.526Z,25.50
2018-07-27T08:24:15.335Z,25.80
2018-07-27T08:26:49.306Z,26.00
2018-07-27T08:29:21.202Z,26.20
2018-07-27T08:31:50.954Z,26.30
2018-07-27T08:34:19.967Z,26.30
2018-07-27T08:36:49.012Z,26.50
2018-07-27T08:39:18.921Z,26.70
2018-07-27T08:41:48.177Z,26.80
2018-07-27T08:44:18.849Z,26.70
2018-07-27T08:46:48.188Z,26.70
2018-07-27T08:49:17.000Z,26.50
2018-07-27T08:51:45.848Z,26.70
2018-07-27T08:54:16.945Z,26.40
2018-07-27T08:56:46.005Z,26.60
2018-07-27T08:59:16.287Z,26.90
2018-07-27T09:01:45.010Z,27.00
2018-07-27T09:04:13.882Z,27.10
2018-07-27T09:06:42.551Z,27.20
2018-07-27T09:09:18.055Z,27.70
2018-07-27T09:11:51.103Z,27.80
2018-07-27T09:14:20.092Z,28.10
2018-07-27T09:16:48.978Z,28.20
2018-07-27T09:19:28.268Z,28.40
2018-07-27T09:22:08.641Z,28.40
2018-07-27T09:24:37.492Z,28.60
2018-07-27T09:27:06.832Z,28.70
2018-07-27T09:29:35.687Z,28.70
2018-07-27T09:32:04.447Z,28.50
2018-07-27T09:34:33.149Z,28.60
2018-07-27T09:37:01.869Z,28.40
2018-07-27T09:39:30.882Z,28.00
2018-07-27T09:41:59.983Z,28.00
2018-07-27T09:44:29.695Z,28.10
2018-07-27T09:46:58.581Z,28.20
2018-07-27T09:49:27.317Z,28.30
2018-07-27T09:51:56.049Z,28.50
2018-07-27T09:54:25.215Z,28.30
2018-07-27T09:56:54.153Z,28.40
2018-07-27T09:59:23.245Z,28.50
2018-07-27T10:01:52.120Z,28.40
2018-07-27T10:04:21.739Z,28.30
2018-07-27T10:07:01.003Z,28.50
2018-07-27T10:09:35.722Z,28.70
2018-07-27T10:12:04.428Z,28.50
2018-07-27T10:14:33.377Z,28.40
2018-07-27T10:17:02.189Z,28.70
2018-07-27T10:19:35.895Z,28.40
2018-07-27T10:22:04.966Z,28.40
2018-07-27T10:24:33.854Z,28.80
2018-07-27T10:27:02.797Z,29.00
2018-07-27T10:29:31.535Z,29.20
2018-07-27T10:32:00.196Z,29.50
2018-07-27T10:34:29.057Z,30.00
2018-07-27T10:36:58.257Z,30.20
2018-07-27T10:39:27.037Z,30.70
2018-07-27T10:42:06.688Z,31.00
2018-07-27T10:44:36.375Z,31.50
2018-07-27T10:47:05.427Z,31.20
2018-07-27T10:49:34.839Z,32.00
2018-07-27T10:52:03.498Z,33.30
2018-07-27T10:54:33.154Z,32.10
2018-07-27T10:57:01.904Z,32.10
2018-07-27T10:59:30.599Z,31.30
2018-07-27T11:01:59.287Z,30.80
2018-07-27T11:04:28.083Z,30.50
2018-07-27T11:07:04.214Z,30.60
2018-07-27T11:09:51.800Z,30.80
2018-07-27T11:12:26.481Z,30.70
2018-07-27T11:14:55.350Z,30.10
2018-07-27T11:17:24.114Z,29.60
2018-07-27T11:19:52.834Z,29.30
2018-07-27T11:22:21.680Z,29.50
2018-07-27T11:24:51.242Z,30.50
2018-07-27T11:27:20.109Z,31.40
2018-07-27T11:29:48.968Z,32.90
2018-07-27T11:32:17.714Z,33.70
2018-07-27T11:34:46.555Z,34.20
2018-07-27T11:37:15.497Z,34.10
2018-07-27T11:39:44.192Z,34.20
2018-07-27T11:42:12.951Z,34.80
2018-07-27T11:44:41.799Z,35.20
2018-07-27T11:47:10.585Z,35.30
2018-07-27T11:49:39.368Z,35.60
2018-07-27T11:52:08.196Z,35.60
2018-07-27T11:54:36.916Z,35.50
2018-07-27T11:57:05.982Z,33.90
2018-07-27T11:59:34.889Z,32.30
2018-07-27T12:02:03.688Z,31.30
2018-07-27T12:04:32.676Z,30.70
2018-07-27T12:07:01.405Z,30.40
2018-07-27T12:09:30.160Z,30.80
2018-07-27T12:11:58.919Z,31.80
2018-07-27T12:14:27.858Z,31.50
2018-07-27T12:16:56.327Z,31.00
2018-07-27T12:19:25.004Z,30.50
2018-07-27T12:21:53.669Z,30.30
2018-07-27T12:24:22.579Z,30.70
2018-07-27T12:26:51.473Z,30.30
2018-07-27T12:29:20.237Z,32.20
2018-07-27T12:31:48.924Z,33.50
2018-07-27T12:34:19.072Z,34.40
2018-07-27T12:36:47.931Z,34.20
2018-07-27T12:39:16.740Z,34.00
2018-07-27T12:41:45.457Z,34.50
2018-07-27T12:44:16.377Z,35.30
2018-07-27T12:46:45.142Z,34.50
2018-07-27T12:49:13.888Z,33.00
2018-07-27T12:51:47.151Z,32.80
2018-07-27T12:54:16.097Z,34.30
2018-07-27T12:56:44.856Z,35.80
2018-07-27T12:59:20.023Z,36.30
2018-07-27T13:01:49.455Z,37.00
2018-07-27T13:04:18.318Z,37.10
2018-07-27T13:06:47.096Z,37.10
2018-07-27T13:09:15.845Z,36.80
2018-07-27T13:11:44.569Z,36.80
2018-07-27T13:14:13.308Z,37.30
2018-07-27T13:16:42.042Z,37.50
2018-07-27T13:19:13.469Z,37.60
2018-07-27T13:21:42.401Z,37.40
2018-07-27T13:24:11.115Z,36.90
2018-07-27T13:26:40.188Z,35.10
2018-07-27T13:29:10.101Z,34.80
2018-07-27T13:31:52.787Z,35.00
2018-07-27T13:34:51.539Z,34.30
2018-07-27T13:37:21.329Z,32.90
2018-07-27T13:39:51.031Z,32.50
2018-07-27T13:42:21.098Z,33.50
2018-07-27T13:44:49.938Z,34.10
2018-07-27T13:47:19.277Z,35.00
2018-07-27T13:49:48.156Z,35.80
2018-07-27T13:52:17.071Z,36.00
2018-07-27T13:54:47.164Z,35.70
2018-07-27T13:57:21.429Z,35.90
2018-07-27T13:59:50.503Z,36.00
2018-07-27T14:02:19.454Z,36.20
2018-07-27T14:04:48.414Z,36.10
2018-07-27T14:07:17.130Z,36.20
2018-07-27T14:09:46.647Z,36.30
2018-07-27T14:12:16.747Z,36.60
2018-07-27T14:14:45.614Z,36.40
2018-07-27T14:17:20.665Z,37.50
2018-07-27T14:19:56.448Z,37.70
2018-07-27T14:22:25.534Z,38.90
2018-07-27T14:24:54.539Z,38.40
2018-07-27T14:27:23.428Z,38.10
2018-07-27T14:29:52.254Z,37.10
2018-07-27T14:32:21.011Z,37.70
2018-07-27T14:34:49.977Z,38.00
2018-07-27T14:37:18.677Z,38.20
2018-07-27T14:39:47.334Z,37.80
2018-07-27T14:42:16.075Z,38.00
2018-07-27T14:44:44.773Z,37.80
2018-07-27T14:47:14.520Z,37.60
2018-07-27T14:49:43.339Z,37.20
2018-07-27T14:52:12.116Z,37.10
2018-07-27T14:54:40.767Z,37.10
2018-07-27T14:57:09.486Z,37.70
2018-07-27T14:59:38.246Z,38.20
2018-07-27T15:02:07.014Z,38.30
2018-07-27T15:04:35.665Z,38.20
2018-07-27T15:07:04.405Z,37.70
2018-07-27T15:09:34.727Z,38.20
2018-07-27T15:12:05.236Z,39.00
2018-07-27T15:14:38.945Z,38.90
2018-07-27T15:17:12.627Z,39.30
2018-07-27T15:19:42.864Z,39.40
2018-07-27T15:22:11.563Z,38.60
2018-07-27T15:24:40.308Z,37.70
2018-07-27T15:27:09.187Z,36.70
2018-07-27T15:29:38.087Z,36.00
2018-07-27T15:32:06.829Z,35.40
2018-07-27T15:34:35.680Z,34.30
2018-07-27T15:37:04.541Z,34.00
2018-07-27T15:39:33.274Z,33.40
2018-07-27T15:42:01.905Z,33.20
2018-07-27T15:44:30.650Z,33.10
2018-07-27T15:46:59.645Z,33.00
2018-07-27T15:49:28.410Z,33.20
2018-07-27T15:51:57.108Z,33.20
2018-07-27T15:54:25.803Z,32.90
2018-07-27T15:56:54.533Z,32.60
2018-07-27T15:59:23.377Z,32.30
2018-07-27T16:01:52.865Z,32.20
2018-07-27T16:04:21.575Z,32.20
2018-07-27T16:06:51.493Z,32.20
2018-07-27T16:09:20.156Z,31.40
2018-07-27T16:11:48.915Z,32.10
2018-07-27T16:14:18.413Z,32.00
2018-07-27T16:16:47.584Z,32.00
2018-07-27T16:19:16.418Z,32.00
2018-07-27T16:21:45.224Z,32.10
2018-07-27T16:24:13.995Z,32.30
2018-07-27T16:26:43.024Z,32.30
2018-07-27T16:29:12.201Z,32.20
2018-07-27T16:31:41.274Z,32.10
2018-07-27T16:34:10.148Z,32.00
2018-07-27T16:36:39.016Z,31.90
2018-07-27T16:39:09.409Z,31.80
2018-07-27T16:41:38.299Z,31.70
2018-07-27T16:44:07.254Z,31.70
2018-07-27T16:46:36.130Z,31.30
2018-07-27T16:49:05.343Z,31.10
2018-07-27T16:51:34.774Z,31.10
2018-07-27T16:54:04.238Z,30.90
2018-07-27T16:56:36.190Z,31.00
2018-07-27T16:59:05.106Z,31.10
2018-07-27T17:01:33.964Z,31.10
2018-07-27T17:04:02.645Z,31.10
2018-07-27T17:06:31.921Z,31.10
2018-07-27T17:09:00.726Z,30.30
2018-07-27T17:11:29.457Z,30.90
2018-07-27T17:13:58.247Z,30.70
2018-07-27T17:16:26.913Z,30.80
2018-07-27T17:18:55.666Z,30.90
2018-07-27T17:21:24.618Z,30.90
2018-07-27T17:23:53.866Z,30.90
2018-07-27T17:26:22.716Z,31.00
2018-07-27T17:28:51.501Z,30.80
2018-07-27T17:31:20.248Z,30.80
2018-07-27T17:33:50.343Z,30.70
2018-07-27T17:36:19.267Z,30.40
2018-07-27T17:38:48.287Z,30.10
2018-07-27T17:41:17.075Z,30.20
2018-07-27T17:43:45.843Z,30.30
2018-07-27T17:46:14.605Z,30.40
2018-07-27T17:48:43.352Z,30.50
2018-07-27T17:51:13.914Z,30.10
2018-07-27T17:53:43.004Z,30.30
2018-07-27T17:56:11.734Z,28.90
2018-07-27T17:58:40.514Z,30.10
2018-07-27T18:01:09.778Z,30.00
2018-07-27T18:03:38.717Z,29.80
2018-07-27T18:06:07.564Z,29.70
2018-07-27T18:08:38.362Z,29.50
2018-07-27T18:11:07.073Z,29.40
2018-07-27T18:13:35.915Z,29.50
2018-07-27T18:16:04.697Z,29.40
2018-07-27T18:18:33.457Z,29.20
2018-07-27T18:21:02.583Z,29.20
2018-07-27T18:23:31.367Z,29.30
2018-07-27T18:26:00.041Z,29.00
2018-07-27T18:28:28.883Z,29.30
2018-07-27T18:30:57.674Z,29.40
2018-07-27T18:33:26.571Z,29.40
2018-07-27T18:35:55.181Z,29.40
2018-07-27T18:38:24.004Z,29.30
2018-07-27T18:40:52.790Z,29.20
2018-07-27T18:43:21.528Z,29.00
2018-07-27T18:45:51.053Z,28.70
2018-07-27T18:48:19.744Z,28.60
2018-07-27T18:50:48.485Z,28.40
2018-07-27T18:53:19.615Z,28.20
2018-07-27T18:55:48.336Z,28.10
2018-07-27T18:58:16.986Z,28.10
2018-07-27T19:00:45.603Z,28.10
2018-07-27T19:03:14.404Z,28.00
2018-07-27T19:05:43.121Z,28.00
2018-07-27T19:08:11.799Z,27.90
2018-07-27T19:10:40.526Z,27.90
2018-07-27T19:13:09.326Z,27.70
2018-07-27T19:15:38.407Z,27.60
2018-07-27T19:18:07.080Z,27.50
2018-07-27T19:20:35.823Z,27.40
2018-07-27T19:23:04.630Z,27.20
2018-07-27T19:25:33.454Z,27.10
2018-07-27T19:28:02.357Z,27.00
2018-07-27T19:30:31.201Z,26.90
2018-07-27T19:32:59.866Z,26.90
2018-07-27T19:35:28.620Z,26.80
2018-07-27T19:37:57.454Z,26.80
2018-07-27T19:40:26.099Z,26.70
2018-07-27T19:42:58.322Z,26.70
2018-07-27T19:45:27.309Z,26.70
2018-07-27T19:47:56.071Z,26.60
2018-07-27T19:50:24.877Z,26.50
2018-07-27T19:52:53.889Z,26.50
2018-07-27T19:55:22.550Z,26.40
2018-07-27T19:57:51.434Z,26.40
2018-07-27T20:00:20.104Z,26.30
2018-07-27T20:02:48.895Z,26.40
2018-07-27T20:05:17.535Z,26.30
2018-07-27T20:07:47.979Z,26.30
2018-07-27T20:10:16.721Z,26.20
2018-07-27T20:12:45.482Z,26.10
2018-07-27T20:15:14.202Z,25.90
2018-07-27T20:17:42.975Z,24.00
2018-07-27T20:20:11.641Z,25.80
2018-07-27T20:22:40.404Z,25.80
2018-07-27T20:25:09.278Z,25.70
2018-07-27T20:27:37.983Z,25.70
2018-07-27T20:30:07.105Z,25.70
2018-07-27T20:32:36.006Z,26.10
2018-07-27T20:35:05.985Z,25.80
2018-07-27T20:37:34.677Z,25.70
2018-07-27T20:40:03.498Z,25.60
2018-07-27T20:42:32.270Z,24.30
2018-07-27T20:45:00.995Z,25.40
2018-07-27T20:47:32.705Z,25.30
2018-07-27T20:50:01.485Z,25.30
2018-07-27T20:52:30.248Z,25.20
2018-07-27T20:54:59.092Z,25.20
2018-07-27T20:57:27.909Z,25.10
2018-07-27T20:59:56.659Z,25.10
2018-07-27T21:02:27.065Z,25.00
2018-07-27T21:04:55.785Z,25.00
2018-07-27T21:07:24.726Z,25.00
2018-07-27T21:09:53.548Z,25.00
2018-07-27T21:12:27.330Z,24.90
2018-07-27T21:14:56.095Z,24.90
2018-07-27T21:17:25.614Z,24.90
2018-07-27T21:19:54.707Z,24.90
2018-07-27T21:22:25.253Z,24.90
2018-07-27T21:24:53.964Z,24.90
2018-07-27T21:27:22.646Z,24.80
2018-07-27T21:29:51.403Z,24.80
2018-07-27T21:32:20.134Z,24.70
2018-07-27T21:34:49.151Z,24.60
2018-07-27T21:37:17.938Z,24.60
2018-07-27T21:39:46.698Z,24.60
2018-07-27T21:42:15.522Z,24.60
2018-07-27T21:44:44.328Z,24.40
2018-07-27T21:47:13.065Z,24.40
2018-07-27T21:49:41.763Z,24.40
2018-07-27T21:52:11.129Z,24.40
2018-07-27T21:54:39.842Z,24.40
2018-07-27T21:57:08.498Z,24.30
2018-07-27T21:59:37.327Z,24.30
2018-07-27T22:02:07.962Z,24.20
2018-07-27T22:04:36.749Z,24.20
2018-07-27T22:07:05.748Z,23.10
2018-07-27T22:09:34.399Z,24.00
2018-07-27T22:12:03.154Z,24.20
2018-07-27T22:14:31.958Z,24.20
2018-07-27T22:17:00.779Z,22.90
2018-07-27T22:19:29.535Z,24.20
2018-07-27T22:21:58.486Z,24.20
2018-07-27T22:24:27.380Z,24.20
2018-07-27T22:26:56.275Z,24.00
2018-07-27T22:29:25.229Z,24.10
2018-07-27T22:31:54.025Z,24.90
2018-07-27T22:34:22.805Z,24.00
2018-07-27T22:36:51.594Z,24.00
2018-07-27T22:39:20.384Z,23.90
2018-07-27T22:41:49.070Z,23.90
2018-07-27T22:44:17.818Z,23.90
2018-07-27T22:46:46.485Z,23.90
2018-07-27T22:49:15.414Z,22.30
2018-07-27T22:51:44.198Z,24.00
2018-07-27T22:54:12.967Z,24.00
2018-07-27T22:56:42.256Z,24.00
2018-07-27T22:59:11.194Z,23.90
2018-07-27T23:01:40.141Z,23.80
2018-07-27T23:04:08.804Z,23.50
2018-07-27T23:06:39.608Z,25.70
2018-07-27T23:09:09.458Z,23.60
2018-07-27T23:11:39.535Z,23.60
2018-07-27T23:14:08.146Z,23.70
2018-07-27T23:16:36.851Z,23.70
2018-07-27T23:19:06.690Z,23.90
2018-07-27T23:21:35.310Z,24.00
2018-07-27T23:24:04.052Z,23.90
2018-07-27T23:26:32.957Z,24.00
2018-07-27T23:29:01.682Z,24.10
2018-07-27T23:31:30.349Z,24.20
2018-07-27T23:33:59.376Z,24.20
2018-07-27T23:36:28.028Z,24.20
2018-07-27T23:38:57.446Z,24.00
2018-07-27T23:41:26.143Z,24.00
2018-07-27T23:43:56.407Z,23.80
2018-07-27T23:46:25.070Z,23.60
2018-07-27T23:48:53.969Z,23.50
2018-07-27T23:51:22.734Z,25.00
2018-07-27T23:53:51.430Z,23.30
2018-07-27T23:56:20.119Z,23.20
2018-07-27T23:58:48.856Z,23.20
